This is the latest recevied weather packets stored in our database for station/object IQ1LY-3. If no packets are shown the sender has not sent any weather packets the latest 10 day(s).
| Time | Temp. | Humidity | Pressure | Rain* | Wind** | Luminosity | Snow |
|---|---|---|---|---|---|---|---|
| 1777206778 | 18.89° C | 74% | 1019 hPa | 0 mm | - | - | - |
| 1777195208 | 17.78° C | 76% | 1019 hPa | 0 mm | - | - | - |
| 1777190338 | 16.67° C | 81% | 1018.3 hPa | 0 mm | - | - | - |
| 1777189737 | 16.11° C | 81% | 1018.3 hPa | 0 mm | - | - | - |
| 1777185530 | 15.56° C | 82% | 1017.6 hPa | 0 mm | - | - | - |
| 1777180723 | 15.56° C | 84% | 1017.3 hPa | 0 mm | - | - | - |
| 1777178289 | 15.56° C | 85% | 1016.6 hPa | 0 mm | - | - | - |
| 1777173482 | 15.56° C | 84% | 1016.6 hPa | 0 mm | - | - | - |
| 1777164978 | 15.56° C | 84% | 1016.6 hPa | 0 mm | - | - | - |
| 1777163776 | 15.56° C | 83% | 1016.6 hPa | 0 mm | - | - | - |
| 1777162513 | 15.56° C | 82% | 1016.9 hPa | 0 mm | - | - | - |
| 1777158877 | 16.11° C | 81% | 1016.9 hPa | 0 mm | - | - | - |
| 1777155241 | 16.11° C | 80% | 1016.9 hPa | 0 mm | - | - | - |
| 1777153976 | 16.11° C | 80% | 1016.9 hPa | 0 mm | - | - | - |
| 1777147043 | 16.67° C | 78% | 1016.6 hPa | 0 mm | - | - | - |
| 1777146441 | 16.67° C | 78% | 1016.6 hPa | 0 mm | - | - | - |
| 1777143944 | 16.67° C | 79% | 1016.3 hPa | 0 mm | - | - | - |
| 1777142680 | 16.67° C | 78% | 1015.9 hPa | 0 mm | - | - | - |
| 1777141415 | 16.67° C | 78% | 1015.9 hPa | 0 mm | - | - | - |
| 1777139012 | 17.22° C | 77% | 1015.6 hPa | 0 mm | - | - | - |
| 1777138411 | 17.22° C | 77% | 1015.6 hPa | 0 mm | - | - | - |
| 1777135406 | 17.22° C | 77% | 1015.6 hPa | 0 mm | - | - | - |
| 1777127503 | 18.33° C | 74% | 1015.6 hPa | 0 mm | - | - | - |
| 1777126270 | 18.33° C | 74% | 1015.9 hPa | 0 mm | - | - | - |
| 1777120200 | 18.33° C | 75% | 1016.6 hPa | 0 mm | - | - | - |
* Rain latest hour (hover to see other rain measurements)
** Current wind speed in m/s (hover to see current wind gust speed)